sensor_id;sensor_type;location;lat;lon;timestamp;P1;durP1;ratioP1;P2;durP2;ratioP2
9248;SDS011;4660;41.768;26.198;2023-02-28T00:00:34;17.50;;;5.30;;
9248;SDS011;4660;41.768;26.198;2023-02-28T00:03:01;14.23;;;5.10;;
9248;SDS011;4660;41.768;26.198;2023-02-28T00:05:28;14.57;;;5.37;;
9248;SDS011;4660;41.768;26.198;2023-02-28T00:07:55;13.50;;;5.67;;
9248;SDS011;4660;41.768;26.198;2023-02-28T00:10:25;18.10;;;5.67;;
9248;SDS011;4660;41.768;26.198;2023-02-28T00:13:01;12.93;;;5.57;;
9248;SDS011;4660;41.768;26.198;2023-02-28T00:15:34;18.53;;;6.90;;
9248;SDS011;4660;41.768;26.198;2023-02-28T00:18:01;18.50;;;5.73;;
9248;SDS011;4660;41.768;26.198;2023-02-28T00:20:29;15.90;;;6.37;;
9248;SDS011;4660;41.768;26.198;2023-02-28T00:22:55;14.33;;;6.20;;
9248;SDS011;4660;41.768;26.198;2023-02-28T00:25:22;21.53;;;5.93;;
9248;SDS011;4660;41.768;26.198;2023-02-28T00:27:51;13.50;;;4.93;;
9248;SDS011;4660;41.768;26.198;2023-02-28T00:30:19;13.47;;;5.40;;
9248;SDS011;4660;41.768;26.198;2023-02-28T00:32:49;13.17;;;5.10;;
9248;SDS011;4660;41.768;26.198;2023-02-28T00:35:17;17.73;;;5.07;;
9248;SDS011;4660;41.768;26.198;2023-02-28T00:37:44;12.87;;;5.27;;
9248;SDS011;4660;41.768;26.198;2023-02-28T00:40:11;14.33;;;4.73;;
9248;SDS011;4660;41.768;26.198;2023-02-28T00:42:38;12.30;;;5.30;;
9248;SDS011;4660;41.768;26.198;2023-02-28T00:45:05;15.10;;;5.57;;
9248;SDS011;4660;41.768;26.198;2023-02-28T00:47:34;14.47;;;5.77;;
9248;SDS011;4660;41.768;26.198;2023-02-28T00:50:02;16.33;;;5.73;;
9248;SDS011;4660;41.768;26.198;2023-02-28T00:52:31;10.73;;;5.20;;
9248;SDS011;4660;41.768;26.198;2023-02-28T00:55:00;15.03;;;5.77;;
9248;SDS011;4660;41.768;26.198;2023-02-28T00:57:26;12.93;;;5.17;;
9248;SDS011;4660;41.768;26.198;2023-02-28T00:59:54;15.40;;;5.30;;
9248;SDS011;4660;41.768;26.198;2023-02-28T01:02:21;10.97;;;5.00;;
9248;SDS011;4660;41.768;26.198;2023-02-28T01:04:49;12.63;;;5.30;;
9248;SDS011;4660;41.768;26.198;2023-02-28T01:07:14;15.57;;;5.73;;
9248;SDS011;4660;41.768;26.198;2023-02-28T01:09:41;15.47;;;5.60;;
9248;SDS011;4660;41.768;26.198;2023-02-28T01:12:10;10.60;;;5.00;;
9248;SDS011;4660;41.768;26.198;2023-02-28T01:14:37;17.37;;;5.33;;
9248;SDS011;4660;41.768;26.198;2023-02-28T01:17:03;13.37;;;5.97;;
9248;SDS011;4660;41.768;26.198;2023-02-28T01:19:31;13.37;;;5.40;;
9248;SDS011;4660;41.768;26.198;2023-02-28T01:22:02;16.10;;;5.37;;
9248;SDS011;4660;41.768;26.198;2023-02-28T01:24:50;19.83;;;5.97;;
9248;SDS011;4660;41.768;26.198;2023-02-28T01:27:20;13.00;;;4.87;;
9248;SDS011;4660;41.768;26.198;2023-02-28T01:29:48;13.97;;;6.13;;
9248;SDS011;4660;41.768;26.198;2023-02-28T01:32:17;13.07;;;5.43;;
9248;SDS011;4660;41.768;26.198;2023-02-28T01:34:43;14.73;;;5.43;;
9248;SDS011;4660;41.768;26.198;2023-02-28T01:37:10;12.97;;;5.53;;
9248;SDS011;4660;41.768;26.198;2023-02-28T01:39:37;11.63;;;5.57;;
9248;SDS011;4660;41.768;26.198;2023-02-28T01:42:03;13.73;;;6.03;;
9248;SDS011;4660;41.768;26.198;2023-02-28T01:47:34;13.10;;;5.47;;
9248;SDS011;4660;41.768;26.198;2023-02-28T01:50:06;12.23;;;5.67;;
9248;SDS011;4660;41.768;26.198;2023-02-28T01:52:47;20.30;;;6.70;;
9248;SDS011;4660;41.768;26.198;2023-02-28T01:55:16;15.77;;;6.17;;
9248;SDS011;4660;41.768;26.198;2023-02-28T01:57:48;9.37;;;5.03;;
9248;SDS011;4660;41.768;26.198;2023-02-28T02:00:22;12.47;;;5.07;;
9248;SDS011;4660;41.768;26.198;2023-02-28T02:02:55;11.83;;;5.53;;
9248;SDS011;4660;41.768;26.198;2023-02-28T02:05:36;11.27;;;6.17;;
9248;SDS011;4660;41.768;26.198;2023-02-28T02:08:06;13.67;;;6.17;;
9248;SDS011;4660;41.768;26.198;2023-02-28T02:10:48;16.90;;;6.20;;
9248;SDS011;4660;41.768;26.198;2023-02-28T02:30:59;11.57;;;5.63;;
9248;SDS011;4660;41.768;26.198;2023-02-28T02:37:27;15.33;;;5.83;;
9248;SDS011;4660;41.768;26.198;2023-02-28T02:39:55;14.43;;;6.60;;
9248;SDS011;4660;41.768;26.198;2023-02-28T02:42:36;14.37;;;6.20;;
9248;SDS011;4660;41.768;26.198;2023-02-28T02:45:38;15.90;;;6.53;;
9248;SDS011;4660;41.768;26.198;2023-02-28T02:48:11;13.50;;;7.47;;
9248;SDS011;4660;41.768;26.198;2023-02-28T02:50:45;16.53;;;6.33;;
9248;SDS011;4660;41.768;26.198;2023-02-28T02:53:18;14.60;;;7.47;;
9248;SDS011;4660;41.768;26.198;2023-02-28T02:56:00;12.47;;;7.03;;
9248;SDS011;4660;41.768;26.198;2023-02-28T02:58:29;13.83;;;6.53;;
9248;SDS011;4660;41.768;26.198;2023-02-28T03:01:10;15.47;;;6.47;;
9248;SDS011;4660;41.768;26.198;2023-02-28T03:03:40;10.37;;;6.60;;
9248;SDS011;4660;41.768;26.198;2023-02-28T03:06:09;11.97;;;7.03;;
9248;SDS011;4660;41.768;26.198;2023-02-28T03:08:37;12.43;;;6.47;;
9248;SDS011;4660;41.768;26.198;2023-02-28T03:11:06;18.10;;;6.53;;
9248;SDS011;4660;41.768;26.198;2023-02-28T03:13:57;12.23;;;7.10;;
9248;SDS011;4660;41.768;26.198;2023-02-28T03:22:24;15.50;;;7.37;;
9248;SDS011;4660;41.768;26.198;2023-02-28T03:25:01;15.57;;;7.07;;
9248;SDS011;4660;41.768;26.198;2023-02-28T03:27:55;13.50;;;7.53;;
9248;SDS011;4660;41.768;26.198;2023-02-28T03:30:47;19.17;;;7.00;;
9248;SDS011;4660;41.768;26.198;2023-02-28T03:33:30;13.63;;;6.87;;
9248;SDS011;4660;41.768;26.198;2023-02-28T03:36:13;10.57;;;6.83;;
9248;SDS011;4660;41.768;26.198;2023-02-28T03:38:51;17.23;;;6.60;;
9248;SDS011;4660;41.768;26.198;2023-02-28T03:41:31;13.93;;;7.30;;
9248;SDS011;4660;41.768;26.198;2023-02-28T03:44:22;12.70;;;6.80;;
9248;SDS011;4660;41.768;26.198;2023-02-28T03:47:07;12.90;;;6.10;;
9248;SDS011;4660;41.768;26.198;2023-02-28T03:49:42;9.47;;;6.30;;
9248;SDS011;4660;41.768;26.198;2023-02-28T03:52:14;17.63;;;6.97;;
9248;SDS011;4660;41.768;26.198;2023-02-28T03:54:52;12.67;;;6.63;;
9248;SDS011;4660;41.768;26.198;2023-02-28T03:57:57;13.57;;;6.97;;
9248;SDS011;4660;41.768;26.198;2023-02-28T04:00:59;14.47;;;7.17;;
9248;SDS011;4660;41.768;26.198;2023-02-28T04:03:37;14.10;;;6.87;;
9248;SDS011;4660;41.768;26.198;2023-02-28T04:06:06;16.03;;;6.70;;
9248;SDS011;4660;41.768;26.198;2023-02-28T04:08:39;12.80;;;8.17;;
9248;SDS011;4660;41.768;26.198;2023-02-28T04:11:07;14.30;;;8.17;;
9248;SDS011;4660;41.768;26.198;2023-02-28T04:14:12;15.77;;;8.03;;
9248;SDS011;4660;41.768;26.198;2023-02-28T04:16:41;17.27;;;8.07;;
9248;SDS011;4660;41.768;26.198;2023-02-28T04:19:07;14.03;;;7.57;;
9248;SDS011;4660;41.768;26.198;2023-02-28T04:21:38;14.10;;;7.33;;
9248;SDS011;4660;41.768;26.198;2023-02-28T04:24:16;10.23;;;7.03;;
9248;SDS011;4660;41.768;26.198;2023-02-28T04:26:48;11.07;;;6.63;;
9248;SDS011;4660;41.768;26.198;2023-02-28T04:29:29;12.20;;;5.90;;
9248;SDS011;4660;41.768;26.198;2023-02-28T04:31:59;13.20;;;6.97;;
9248;SDS011;4660;41.768;26.198;2023-02-28T04:34:30;10.60;;;7.40;;
9248;SDS011;4660;41.768;26.198;2023-02-28T04:36:59;13.53;;;7.63;;
9248;SDS011;4660;41.768;26.198;2023-02-28T04:39:28;15.77;;;7.73;;
9248;SDS011;4660;41.768;26.198;2023-02-28T04:41:56;13.73;;;8.17;;
9248;SDS011;4660;41.768;26.198;2023-02-28T04:44:22;16.83;;;7.37;;
9248;SDS011;4660;41.768;26.198;2023-02-28T04:46:49;13.20;;;7.07;;
9248;SDS011;4660;41.768;26.198;2023-02-28T04:49:16;14.57;;;7.47;;
9248;SDS011;4660;41.768;26.198;2023-02-28T04:51:44;11.97;;;7.47;;
9248;SDS011;4660;41.768;26.198;2023-02-28T04:54:12;14.43;;;6.63;;
9248;SDS011;4660;41.768;26.198;2023-02-28T04:56:42;16.63;;;7.27;;
9248;SDS011;4660;41.768;26.198;2023-02-28T04:59:09;11.37;;;6.67;;
9248;SDS011;4660;41.768;26.198;2023-02-28T05:01:36;11.83;;;6.37;;
9248;SDS011;4660;41.768;26.198;2023-02-28T05:04:05;11.83;;;7.57;;
9248;SDS011;4660;41.768;26.198;2023-02-28T05:06:32;17.07;;;6.80;;
9248;SDS011;4660;41.768;26.198;2023-02-28T05:08:58;13.00;;;6.77;;
9248;SDS011;4660;41.768;26.198;2023-02-28T05:11:28;11.23;;;7.17;;
9248;SDS011;4660;41.768;26.198;2023-02-28T05:14:05;11.67;;;6.30;;
9248;SDS011;4660;41.768;26.198;2023-02-28T05:16:40;12.27;;;6.90;;
9248;SDS011;4660;41.768;26.198;2023-02-28T05:19:07;9.40;;;7.17;;
9248;SDS011;4660;41.768;26.198;2023-02-28T05:21:40;11.53;;;8.00;;
9248;SDS011;4660;41.768;26.198;2023-02-28T05:24:13;10.87;;;7.10;;
9248;SDS011;4660;41.768;26.198;2023-02-28T05:26:42;13.37;;;7.00;;
9248;SDS011;4660;41.768;26.198;2023-02-28T05:29:09;10.20;;;7.67;;
9248;SDS011;4660;41.768;26.198;2023-02-28T05:31:36;12.93;;;7.90;;
9248;SDS011;4660;41.768;26.198;2023-02-28T05:34:03;15.07;;;8.40;;
9248;SDS011;4660;41.768;26.198;2023-02-28T05:36:31;13.17;;;7.53;;
9248;SDS011;4660;41.768;26.198;2023-02-28T05:38:58;12.77;;;8.13;;
9248;SDS011;4660;41.768;26.198;2023-02-28T05:41:25;13.63;;;8.43;;
9248;SDS011;4660;41.768;26.198;2023-02-28T05:43:51;17.00;;;9.17;;
9248;SDS011;4660;41.768;26.198;2023-02-28T05:46:17;16.23;;;9.90;;
9248;SDS011;4660;41.768;26.198;2023-02-28T05:48:45;30.80;;;20.80;;
9248;SDS011;4660;41.768;26.198;2023-02-28T05:51:13;18.47;;;11.90;;
9248;SDS011;4660;41.768;26.198;2023-02-28T05:53:40;14.33;;;9.30;;
9248;SDS011;4660;41.768;26.198;2023-02-28T05:56:05;17.23;;;8.27;;
9248;SDS011;4660;41.768;26.198;2023-02-28T05:58:32;19.57;;;10.97;;
9248;SDS011;4660;41.768;26.198;2023-02-28T06:01:19;15.73;;;9.13;;
9248;SDS011;4660;41.768;26.198;2023-02-28T06:04:07;12.07;;;8.33;;
9248;SDS011;4660;41.768;26.198;2023-02-28T06:06:37;16.27;;;10.70;;
9248;SDS011;4660;41.768;26.198;2023-02-28T06:09:05;14.37;;;8.97;;
9248;SDS011;4660;41.768;26.198;2023-02-28T06:11:32;17.17;;;9.03;;
9248;SDS011;4660;41.768;26.198;2023-02-28T06:14:00;16.27;;;9.13;;
9248;SDS011;4660;41.768;26.198;2023-02-28T06:16:28;14.17;;;7.73;;
9248;SDS011;4660;41.768;26.198;2023-02-28T06:18:57;13.13;;;7.80;;
9248;SDS011;4660;41.768;26.198;2023-02-28T06:21:24;13.57;;;8.27;;
9248;SDS011;4660;41.768;26.198;2023-02-28T06:23:51;15.87;;;8.93;;
9248;SDS011;4660;41.768;26.198;2023-02-28T06:26:18;15.10;;;7.97;;
9248;SDS011;4660;41.768;26.198;2023-02-28T06:28:44;14.57;;;8.50;;
9248;SDS011;4660;41.768;26.198;2023-02-28T06:31:12;16.60;;;9.57;;
9248;SDS011;4660;41.768;26.198;2023-02-28T06:33:40;17.80;;;9.10;;
9248;SDS011;4660;41.768;26.198;2023-02-28T06:36:10;22.40;;;10.30;;
9248;SDS011;4660;41.768;26.198;2023-02-28T06:38:40;17.53;;;8.23;;
9248;SDS011;4660;41.768;26.198;2023-02-28T06:41:06;17.43;;;7.83;;
9248;SDS011;4660;41.768;26.198;2023-02-28T06:43:36;17.73;;;9.07;;
9248;SDS011;4660;41.768;26.198;2023-02-28T06:46:13;14.07;;;8.20;;
9248;SDS011;4660;41.768;26.198;2023-02-28T06:48:42;12.90;;;7.90;;
9248;SDS011;4660;41.768;26.198;2023-02-28T06:51:13;17.27;;;8.50;;
9248;SDS011;4660;41.768;26.198;2023-02-28T06:53:48;13.97;;;8.20;;
9248;SDS011;4660;41.768;26.198;2023-02-28T06:56:14;14.27;;;7.80;;
9248;SDS011;4660;41.768;26.198;2023-02-28T06:58:52;14.53;;;7.40;;
9248;SDS011;4660;41.768;26.198;2023-02-28T07:01:19;13.30;;;8.30;;
9248;SDS011;4660;41.768;26.198;2023-02-28T07:03:49;12.83;;;8.27;;
9248;SDS011;4660;41.768;26.198;2023-02-28T07:06:21;16.03;;;8.93;;
9248;SDS011;4660;41.768;26.198;2023-02-28T07:08:49;19.40;;;7.87;;
9248;SDS011;4660;41.768;26.198;2023-02-28T07:11:20;17.80;;;8.40;;
9248;SDS011;4660;41.768;26.198;2023-02-28T07:13:49;13.93;;;8.50;;
9248;SDS011;4660;41.768;26.198;2023-02-28T07:16:17;12.73;;;7.70;;
9248;SDS011;4660;41.768;26.198;2023-02-28T07:18:49;11.47;;;8.50;;
9248;SDS011;4660;41.768;26.198;2023-02-28T07:21:19;16.93;;;8.50;;
9248;SDS011;4660;41.768;26.198;2023-02-28T07:23:45;14.20;;;9.37;;
9248;SDS011;4660;41.768;26.198;2023-02-28T07:26:13;11.57;;;8.47;;
9248;SDS011;4660;41.768;26.198;2023-02-28T07:28:44;16.20;;;9.00;;
9248;SDS011;4660;41.768;26.198;2023-02-28T07:31:20;12.77;;;8.10;;
9248;SDS011;4660;41.768;26.198;2023-02-28T07:33:48;12.27;;;8.00;;
9248;SDS011;4660;41.768;26.198;2023-02-28T07:36:15;14.80;;;8.13;;
9248;SDS011;4660;41.768;26.198;2023-02-28T07:38:46;19.80;;;10.63;;
9248;SDS011;4660;41.768;26.198;2023-02-28T07:41:17;17.80;;;9.37;;
9248;SDS011;4660;41.768;26.198;2023-02-28T07:43:47;9.80;;;6.93;;
9248;SDS011;4660;41.768;26.198;2023-02-28T07:46:15;13.40;;;7.43;;
9248;SDS011;4660;41.768;26.198;2023-02-28T07:48:44;15.37;;;8.33;;
9248;SDS011;4660;41.768;26.198;2023-02-28T07:51:12;16.03;;;8.30;;
9248;SDS011;4660;41.768;26.198;2023-02-28T07:53:39;13.17;;;7.90;;
9248;SDS011;4660;41.768;26.198;2023-02-28T07:56:08;14.07;;;8.17;;
9248;SDS011;4660;41.768;26.198;2023-02-28T07:58:45;13.40;;;7.43;;
9248;SDS011;4660;41.768;26.198;2023-02-28T08:01:12;14.90;;;7.60;;
9248;SDS011;4660;41.768;26.198;2023-02-28T08:03:41;12.13;;;7.40;;
9248;SDS011;4660;41.768;26.198;2023-02-28T08:06:15;12.77;;;7.30;;
9248;SDS011;4660;41.768;26.198;2023-02-28T08:08:46;14.80;;;8.37;;
9248;SDS011;4660;41.768;26.198;2023-02-28T08:11:17;12.23;;;6.93;;
9248;SDS011;4660;41.768;26.198;2023-02-28T08:13:47;17.47;;;8.23;;
9248;SDS011;4660;41.768;26.198;2023-02-28T08:16:13;14.77;;;7.53;;
9248;SDS011;4660;41.768;26.198;2023-02-28T08:18:44;12.53;;;7.73;;
9248;SDS011;4660;41.768;26.198;2023-02-28T08:21:11;11.77;;;7.83;;
9248;SDS011;4660;41.768;26.198;2023-02-28T08:23:38;13.43;;;7.90;;
9248;SDS011;4660;41.768;26.198;2023-02-28T08:26:06;14.17;;;8.23;;
9248;SDS011;4660;41.768;26.198;2023-02-28T08:28:33;12.60;;;8.27;;
9248;SDS011;4660;41.768;26.198;2023-02-28T08:31:00;12.70;;;7.60;;
9248;SDS011;4660;41.768;26.198;2023-02-28T08:33:27;11.97;;;7.97;;
9248;SDS011;4660;41.768;26.198;2023-02-28T08:35:55;11.63;;;7.87;;
9248;SDS011;4660;41.768;26.198;2023-02-28T08:38:23;14.20;;;8.80;;
9248;SDS011;4660;41.768;26.198;2023-02-28T08:40:56;12.60;;;7.93;;
9248;SDS011;4660;41.768;26.198;2023-02-28T08:43:24;20.30;;;9.73;;
9248;SDS011;4660;41.768;26.198;2023-02-28T08:45:54;14.10;;;7.83;;
9248;SDS011;4660;41.768;26.198;2023-02-28T08:48:28;17.37;;;7.93;;
9248;SDS011;4660;41.768;26.198;2023-02-28T08:51:07;18.53;;;11.30;;
9248;SDS011;4660;41.768;26.198;2023-02-28T08:53:58;11.30;;;7.70;;
9248;SDS011;4660;41.768;26.198;2023-02-28T08:56:27;12.23;;;7.67;;
9248;SDS011;4660;41.768;26.198;2023-02-28T08:58:55;14.20;;;8.27;;
9248;SDS011;4660;41.768;26.198;2023-02-28T09:01:24;20.83;;;9.50;;
9248;SDS011;4660;41.768;26.198;2023-02-28T09:03:54;17.80;;;8.27;;
9248;SDS011;4660;41.768;26.198;2023-02-28T09:06:22;20.13;;;10.00;;
9248;SDS011;4660;41.768;26.198;2023-02-28T09:08:51;27.83;;;12.47;;
9248;SDS011;4660;41.768;26.198;2023-02-28T09:11:18;39.60;;;18.67;;
9248;SDS011;4660;41.768;26.198;2023-02-28T09:13:48;18.33;;;9.40;;
9248;SDS011;4660;41.768;26.198;2023-02-28T09:16:16;13.87;;;8.40;;
9248;SDS011;4660;41.768;26.198;2023-02-28T09:18:44;15.23;;;8.43;;
9248;SDS011;4660;41.768;26.198;2023-02-28T09:21:12;17.30;;;8.90;;
9248;SDS011;4660;41.768;26.198;2023-02-28T09:23:41;24.73;;;12.57;;
9248;SDS011;4660;41.768;26.198;2023-02-28T09:26:16;15.67;;;10.13;;
9248;SDS011;4660;41.768;26.198;2023-02-28T09:28:44;20.87;;;10.20;;
9248;SDS011;4660;41.768;26.198;2023-02-28T09:31:12;17.87;;;8.20;;
9248;SDS011;4660;41.768;26.198;2023-02-28T09:33:47;24.53;;;13.17;;
9248;SDS011;4660;41.768;26.198;2023-02-28T09:36:15;17.97;;;8.93;;
9248;SDS011;4660;41.768;26.198;2023-02-28T09:38:42;19.37;;;12.20;;
9248;SDS011;4660;41.768;26.198;2023-02-28T09:41:13;18.47;;;10.33;;
9248;SDS011;4660;41.768;26.198;2023-02-28T09:43:44;15.23;;;7.40;;
9248;SDS011;4660;41.768;26.198;2023-02-28T09:46:44;18.30;;;10.83;;
9248;SDS011;4660;41.768;26.198;2023-02-28T09:49:25;15.70;;;7.93;;
9248;SDS011;4660;41.768;26.198;2023-02-28T09:52:03;19.23;;;8.47;;
9248;SDS011;4660;41.768;26.198;2023-02-28T09:54:36;12.50;;;6.60;;
9248;SDS011;4660;41.768;26.198;2023-02-28T09:57:29;16.53;;;7.03;;
9248;SDS011;4660;41.768;26.198;2023-02-28T10:00:24;10.77;;;6.83;;
9248;SDS011;4660;41.768;26.198;2023-02-28T10:06:17;19.20;;;9.43;;
9248;SDS011;4660;41.768;26.198;2023-02-28T10:11:40;23.50;;;11.57;;
9248;SDS011;4660;41.768;26.198;2023-02-28T10:14:22;11.20;;;7.77;;
9248;SDS011;4660;41.768;26.198;2023-02-28T10:16:52;14.47;;;8.47;;
9248;SDS011;4660;41.768;26.198;2023-02-28T10:19:39;14.73;;;7.40;;
9248;SDS011;4660;41.768;26.198;2023-02-28T10:23:13;14.47;;;7.13;;
9248;SDS011;4660;41.768;26.198;2023-02-28T10:25:23;14.83;;;7.60;;
9248;SDS011;4660;41.768;26.198;2023-02-28T10:28:00;14.37;;;8.00;;
9248;SDS011;4660;41.768;26.198;2023-02-28T10:30:46;14.13;;;7.20;;
9248;SDS011;4660;41.768;26.198;2023-02-28T10:33:34;11.43;;;7.37;;
9248;SDS011;4660;41.768;26.198;2023-02-28T10:36:01;15.37;;;7.83;;
9248;SDS011;4660;41.768;26.198;2023-02-28T10:38:39;14.23;;;7.50;;
9248;SDS011;4660;41.768;26.198;2023-02-28T10:41:14;15.10;;;8.23;;
9248;SDS011;4660;41.768;26.198;2023-02-28T10:43:42;24.80;;;11.23;;
9248;SDS011;4660;41.768;26.198;2023-02-28T10:46:14;17.13;;;7.73;;
9248;SDS011;4660;41.768;26.198;2023-02-28T10:49:03;16.20;;;7.37;;
9248;SDS011;4660;41.768;26.198;2023-02-28T10:51:40;15.20;;;7.03;;
9248;SDS011;4660;41.768;26.198;2023-02-28T10:54:19;13.93;;;7.93;;
9248;SDS011;4660;41.768;26.198;2023-02-28T10:59:44;16.37;;;7.97;;
9248;SDS011;4660;41.768;26.198;2023-02-28T11:02:33;12.97;;;7.10;;
9248;SDS011;4660;41.768;26.198;2023-02-28T11:05:01;13.00;;;6.80;;
9248;SDS011;4660;41.768;26.198;2023-02-28T11:07:27;14.83;;;7.10;;
9248;SDS011;4660;41.768;26.198;2023-02-28T11:09:58;16.97;;;7.93;;
9248;SDS011;4660;41.768;26.198;2023-02-28T11:12:34;13.50;;;7.60;;
9248;SDS011;4660;41.768;26.198;2023-02-28T11:17:56;16.53;;;7.37;;
9248;SDS011;4660;41.768;26.198;2023-02-28T11:20:32;12.77;;;7.67;;
9248;SDS011;4660;41.768;26.198;2023-02-28T11:23:03;20.17;;;8.23;;
9248;SDS011;4660;41.768;26.198;2023-02-28T11:25:47;14.53;;;7.40;;
9248;SDS011;4660;41.768;26.198;2023-02-28T11:28:25;14.87;;;7.57;;
9248;SDS011;4660;41.768;26.198;2023-02-28T11:31:16;13.45;;;7.75;;
9248;SDS011;4660;41.768;26.198;2023-02-28T11:39:07;17.57;;;8.70;;
9248;SDS011;4660;41.768;26.198;2023-02-28T11:47:32;14.47;;;8.30;;
9248;SDS011;4660;41.768;26.198;2023-02-28T11:52:45;15.93;;;8.67;;
9248;SDS011;4660;41.768;26.198;2023-02-28T11:55:25;22.83;;;12.27;;
9248;SDS011;4660;41.768;26.198;2023-02-28T12:04:09;22.43;;;12.27;;
9248;SDS011;4660;41.768;26.198;2023-02-28T12:22:34;21.47;;;12.70;;
9248;SDS011;4660;41.768;26.198;2023-02-28T12:28:28;18.83;;;12.03;;
9248;SDS011;4660;41.768;26.198;2023-02-28T12:31:44;18.40;;;11.90;;
9248;SDS011;4660;41.768;26.198;2023-02-28T12:34:18;21.97;;;13.00;;
9248;SDS011;4660;41.768;26.198;2023-02-28T12:36:49;22.17;;;13.80;;
9248;SDS011;4660;41.768;26.198;2023-02-28T12:39:36;25.37;;;14.00;;
9248;SDS011;4660;41.768;26.198;2023-02-28T12:42:12;24.27;;;14.70;;
9248;SDS011;4660;41.768;26.198;2023-02-28T12:44:49;26.33;;;15.50;;
9248;SDS011;4660;41.768;26.198;2023-02-28T12:47:19;27.10;;;15.37;;
9248;SDS011;4660;41.768;26.198;2023-02-28T12:58:36;23.77;;;14.93;;
9248;SDS011;4660;41.768;26.198;2023-02-28T13:09:35;25.77;;;16.90;;
9248;SDS011;4660;41.768;26.198;2023-02-28T13:12:12;23.23;;;18.20;;
9248;SDS011;4660;41.768;26.198;2023-02-28T13:14:41;24.40;;;17.67;;
9248;SDS011;4660;41.768;26.198;2023-02-28T13:17:11;27.67;;;19.00;;
9248;SDS011;4660;41.768;26.198;2023-02-28T13:24:54;29.60;;;18.60;;
9248;SDS011;4660;41.768;26.198;2023-02-28T13:27:36;28.30;;;18.87;;
9248;SDS011;4660;41.768;26.198;2023-02-28T13:36:26;26.17;;;19.53;;
9248;SDS011;4660;41.768;26.198;2023-02-28T13:39:03;30.10;;;20.43;;
9248;SDS011;4660;41.768;26.198;2023-02-28T13:45:26;30.33;;;22.80;;
9248;SDS011;4660;41.768;26.198;2023-02-28T13:50:55;30.37;;;21.03;;
9248;SDS011;4660;41.768;26.198;2023-02-28T13:53:34;34.73;;;21.53;;
9248;SDS011;4660;41.768;26.198;2023-02-28T13:56:32;26.50;;;21.20;;
9248;SDS011;4660;41.768;26.198;2023-02-28T13:59:35;35.17;;;23.13;;
9248;SDS011;4660;41.768;26.198;2023-02-28T14:05:19;41.27;;;25.17;;
9248;SDS011;4660;41.768;26.198;2023-02-28T14:07:53;29.73;;;21.23;;
9248;SDS011;4660;41.768;26.198;2023-02-28T14:10:48;29.57;;;21.10;;
9248;SDS011;4660;41.768;26.198;2023-02-28T14:16:11;35.17;;;22.47;;
9248;SDS011;4660;41.768;26.198;2023-02-28T14:18:42;37.50;;;22.67;;
9248;SDS011;4660;41.768;26.198;2023-02-28T14:21:31;30.80;;;21.87;;
9248;SDS011;4660;41.768;26.198;2023-02-28T14:39:06;35.67;;;22.53;;
9248;SDS011;4660;41.768;26.198;2023-02-28T14:41:41;36.57;;;22.17;;
9248;SDS011;4660;41.768;26.198;2023-02-28T14:44:42;37.07;;;24.03;;
9248;SDS011;4660;41.768;26.198;2023-02-28T14:47:02;36.47;;;23.87;;
9248;SDS011;4660;41.768;26.198;2023-02-28T14:49:42;35.93;;;23.67;;
9248;SDS011;4660;41.768;26.198;2023-02-28T14:54:51;31.33;;;21.33;;
9248;SDS011;4660;41.768;26.198;2023-02-28T14:57:39;36.30;;;22.50;;
9248;SDS011;4660;41.768;26.198;2023-02-28T15:00:20;32.47;;;22.63;;
9248;SDS011;4660;41.768;26.198;2023-02-28T15:02:56;31.43;;;21.60;;
9248;SDS011;4660;41.768;26.198;2023-02-28T15:05:32;34.07;;;20.80;;
9248;SDS011;4660;41.768;26.198;2023-02-28T15:08:06;32.53;;;21.27;;
9248;SDS011;4660;41.768;26.198;2023-02-28T15:10:51;34.10;;;21.50;;
9248;SDS011;4660;41.768;26.198;2023-02-28T15:13:26;32.67;;;21.33;;
9248;SDS011;4660;41.768;26.198;2023-02-28T15:22:20;33.40;;;22.33;;
9248;SDS011;4660;41.768;26.198;2023-02-28T15:24:55;38.27;;;22.53;;
9248;SDS011;4660;41.768;26.198;2023-02-28T15:27:27;39.20;;;24.70;;
9248;SDS011;4660;41.768;26.198;2023-02-28T15:30:06;44.97;;;26.93;;
9248;SDS011;4660;41.768;26.198;2023-02-28T15:32:37;44.43;;;29.17;;
9248;SDS011;4660;41.768;26.198;2023-02-28T15:35:26;34.77;;;21.57;;
9248;SDS011;4660;41.768;26.198;2023-02-28T15:41:00;22.73;;;15.13;;
9248;SDS011;4660;41.768;26.198;2023-02-28T15:43:28;15.63;;;10.27;;
9248;SDS011;4660;41.768;26.198;2023-02-28T15:46:12;15.30;;;11.87;;
9248;SDS011;4660;41.768;26.198;2023-02-28T15:48:54;13.77;;;9.43;;
9248;SDS011;4660;41.768;26.198;2023-02-28T15:51:36;13.20;;;8.50;;
9248;SDS011;4660;41.768;26.198;2023-02-28T15:57:06;8.73;;;7.17;;
9248;SDS011;4660;41.768;26.198;2023-02-28T15:59:42;11.23;;;7.10;;
9248;SDS011;4660;41.768;26.198;2023-02-28T16:02:18;13.03;;;8.70;;
9248;SDS011;4660;41.768;26.198;2023-02-28T16:05:18;12.13;;;9.33;;
9248;SDS011;4660;41.768;26.198;2023-02-28T16:08:11;10.80;;;8.40;;
9248;SDS011;4660;41.768;26.198;2023-02-28T16:10:40;9.77;;;7.93;;
9248;SDS011;4660;41.768;26.198;2023-02-28T16:13:06;11.17;;;9.17;;
9248;SDS011;4660;41.768;26.198;2023-02-28T16:15:41;9.67;;;7.87;;
9248;SDS011;4660;41.768;26.198;2023-02-28T16:18:13;10.33;;;8.13;;
9248;SDS011;4660;41.768;26.198;2023-02-28T16:20:40;12.63;;;8.93;;
9248;SDS011;4660;41.768;26.198;2023-02-28T16:23:07;12.47;;;9.50;;
9248;SDS011;4660;41.768;26.198;2023-02-28T16:25:38;19.33;;;12.60;;
9248;SDS011;4660;41.768;26.198;2023-02-28T16:30:54;21.20;;;13.77;;
9248;SDS011;4660;41.768;26.198;2023-02-28T16:33:21;21.80;;;14.33;;
9248;SDS011;4660;41.768;26.198;2023-02-28T16:35:49;17.07;;;11.47;;
9248;SDS011;4660;41.768;26.198;2023-02-28T16:38:16;26.97;;;17.17;;
9248;SDS011;4660;41.768;26.198;2023-02-28T16:40:43;20.90;;;13.27;;
9248;SDS011;4660;41.768;26.198;2023-02-28T16:43:20;41.77;;;23.37;;
9248;SDS011;4660;41.768;26.198;2023-02-28T16:45:55;32.33;;;17.07;;
9248;SDS011;4660;41.768;26.198;2023-02-28T16:48:28;26.37;;;17.97;;
9248;SDS011;4660;41.768;26.198;2023-02-28T16:50:56;13.73;;;10.57;;
9248;SDS011;4660;41.768;26.198;2023-02-28T16:53:24;10.93;;;6.67;;
9248;SDS011;4660;41.768;26.198;2023-02-28T16:55:50;11.37;;;6.57;;
9248;SDS011;4660;41.768;26.198;2023-02-28T16:58:17;10.83;;;7.03;;
9248;SDS011;4660;41.768;26.198;2023-02-28T17:00:46;11.23;;;8.00;;
9248;SDS011;4660;41.768;26.198;2023-02-28T17:03:23;12.80;;;8.30;;
9248;SDS011;4660;41.768;26.198;2023-02-28T17:05:53;6.93;;;4.93;;
9248;SDS011;4660;41.768;26.198;2023-02-28T17:08:20;6.03;;;3.90;;
9248;SDS011;4660;41.768;26.198;2023-02-28T17:10:47;17.60;;;8.00;;
9248;SDS011;4660;41.768;26.198;2023-02-28T17:13:14;34.63;;;15.43;;
9248;SDS011;4660;41.768;26.198;2023-02-28T17:15:41;17.03;;;9.73;;
9248;SDS011;4660;41.768;26.198;2023-02-28T17:18:17;32.60;;;11.43;;
9248;SDS011;4660;41.768;26.198;2023-02-28T17:21:00;14.43;;;8.00;;
9248;SDS011;4660;41.768;26.198;2023-02-28T17:23:26;10.33;;;5.80;;
9248;SDS011;4660;41.768;26.198;2023-02-28T17:25:53;5.93;;;3.70;;
9248;SDS011;4660;41.768;26.198;2023-02-28T17:28:20;5.47;;;4.33;;
9248;SDS011;4660;41.768;26.198;2023-02-28T17:30:49;5.10;;;3.57;;
9248;SDS011;4660;41.768;26.198;2023-02-28T17:33:15;4.07;;;3.20;;
9248;SDS011;4660;41.768;26.198;2023-02-28T17:35:43;4.07;;;2.73;;
9248;SDS011;4660;41.768;26.198;2023-02-28T17:38:15;2.10;;;1.90;;
9248;SDS011;4660;41.768;26.198;2023-02-28T17:40:42;3.17;;;2.40;;
9248;SDS011;4660;41.768;26.198;2023-02-28T17:43:09;4.00;;;2.83;;
9248;SDS011;4660;41.768;26.198;2023-02-28T17:45:35;3.93;;;2.67;;
9248;SDS011;4660;41.768;26.198;2023-02-28T17:48:02;4.53;;;3.73;;
9248;SDS011;4660;41.768;26.198;2023-02-28T17:50:29;6.73;;;3.80;;
9248;SDS011;4660;41.768;26.198;2023-02-28T17:52:57;10.47;;;5.63;;
9248;SDS011;4660;41.768;26.198;2023-02-28T17:55:25;15.30;;;8.00;;